Time;durP1;ratioP1;P1;durP2;ratioP2;P2;SDS_P1;SDS_P2;PMS_P1;PMS_P2;Temp;Humidity;BMP_temperature;BMP_pressure;BME280_temperature;BME280_humidity;BME280_pressure;Samples;Min_cycle;Max_cycle;Signal;HPM_P1;HPM_P2
2023/11/02 00:00:35;;;;;;;3.47;0.90;;;10.40;99.90;;;;;;6204881;23;20082;-81
2023/11/02 00:03:03;;;;;;;1.92;0.73;;;10.50;99.90;;;;;;6204689;23;20020;-80
2023/11/02 00:05:52;;;;;;;2.22;0.80;;;10.50;99.90;;;;;;6224786;23;20020;-80
2023/11/02 00:08:20;;;;;;;3.22;1.10;;;10.60;99.90;;;;;;6234514;22;20026;-80
2023/11/02 00:10:47;;;;;;;1.95;0.70;;;10.60;99.90;;;;;;6234946;23;20020;-81
2023/11/02 00:13:24;;;;;;;2.00;0.90;;;10.60;99.90;;;;;;6233309;23;20082;-81
2023/11/02 00:15:51;;;;;;;3.33;1.05;;;10.70;99.90;;;;;;6233744;23;20024;-81
2023/11/02 00:18:18;;;;;;;4.72;1.30;;;10.70;99.90;;;;;;6233038;23;20024;-82
2023/11/02 00:20:47;;;;;;;1.95;0.93;;;10.80;99.90;;;;;;6233694;23;20159;-81
2023/11/02 00:23:17;;;;;;;3.08;1.30;;;10.80;99.90;;;;;;6208791;23;20043;-79
2023/11/02 00:25:49;;;;;;;2.63;1.00;;;10.80;99.90;;;;;;6208986;23;20047;-80
2023/11/02 00:28:16;;;;;;;1.48;0.70;;;10.90;99.90;;;;;;6232995;23;20028;-79
2023/11/02 00:30:46;;;;;;;1.65;0.77;;;10.90;99.90;;;;;;6232778;23;20028;-79
2023/11/02 00:33:13;;;;;;;1.88;1.10;;;10.90;99.90;;;;;;6232719;23;20473;-79
2023/11/02 00:35:44;;;;;;;1.60;0.80;;;10.90;99.90;;;;;;6234657;23;20466;-81
2023/11/02 00:38:32;;;;;;;3.05;0.98;;;11.00;99.90;;;;;;6233067;23;20031;-80
2023/11/02 00:40:59;;;;;;;2.75;1.00;;;11.00;99.90;;;;;;6232994;23;20354;-80
2023/11/02 00:43:28;;;;;;;2.08;0.70;;;11.00;99.90;;;;;;6232439;23;20028;-79
2023/11/02 00:45:55;;;;;;;2.75;0.90;;;11.00;99.90;;;;;;6234506;23;20024;-80
2023/11/02 00:48:26;;;;;;;3.90;0.95;;;11.00;99.90;;;;;;6234500;23;20051;-80
2023/11/02 00:51:05;;;;;;;4.10;1.40;;;11.10;99.90;;;;;;6234967;23;20031;-81
2023/11/02 00:53:32;;;;;;;2.22;0.95;;;11.10;99.90;;;;;;6232791;23;20102;-81
2023/11/02 00:55:59;;;;;;;4.93;1.13;;;11.10;99.90;;;;;;6234492;23;20020;-80
2023/11/02 00:58:28;;;;;;;2.13;0.90;;;11.10;71.30;;;;;;6207748;23;20031;-82
2023/11/02 01:00:55;;;;;;;2.22;0.75;;;11.10;45.90;;;;;;6207920;23;20016;-81
2023/11/02 01:03:22;;;;;;;3.42;0.82;;;11.10;99.80;;;;;;6233866;22;20080;-81
2023/11/02 01:05:49;;;;;;;2.53;0.90;;;11.10;99.90;;;;;;6204622;23;20043;-80
2023/11/02 01:08:16;;;;;;;2.88;0.70;;;11.20;99.90;;;;;;6152389;23;20334;-80
2023/11/02 01:10:45;;;;;;;2.40;0.88;;;11.20;99.90;;;;;;6152921;23;20032;-81
2023/11/02 01:13:17;;;;;;;1.73;0.70;;;11.20;99.90;;;;;;6153192;23;20103;-81
2023/11/02 01:15:45;;;;;;;1.58;0.65;;;11.10;99.90;;;;;;6177742;23;20021;-80
2023/11/02 01:18:13;;;;;;;1.77;0.65;;;11.20;99.90;;;;;;6205040;23;20123;-81
2023/11/02 01:20:46;;;;;;;2.47;1.02;;;11.20;99.90;;;;;;6178849;23;20025;-82
2023/11/02 01:23:16;;;;;;;1.52;0.60;;;11.20;99.90;;;;;;6182837;23;20020;-81
2023/11/02 01:25:49;;;;;;;2.90;1.05;;;11.20;99.90;;;;;;6182772;23;20024;-82
2023/11/02 01:28:17;;;;;;;1.98;0.80;;;11.20;99.90;;;;;;6181965;23;20024;-81
2023/11/02 01:31:08;;;;;;;1.98;0.70;;;11.20;99.90;;;;;;6157512;23;20520;-82
2023/11/02 01:33:38;;;;;;;2.55;0.88;;;11.20;99.90;;;;;;6181591;23;20075;-82
2023/11/02 01:36:06;;;;;;;1.27;0.63;;;11.20;99.90;;;;;;6208710;23;20016;-81
2023/11/02 01:38:33;;;;;;;1.27;0.47;;;11.20;99.90;;;;;;6157285;23;20027;-80
2023/11/02 01:41:14;;;;;;;1.15;0.50;;;11.20;99.90;;;;;;6156207;23;20079;-80
2023/11/02 01:43:50;;;;;;;0.88;0.40;;;11.20;99.90;;;;;;6157685;23;20355;-79
2023/11/02 01:46:38;;;;;;;2.33;0.68;;;11.20;99.90;;;;;;6180986;23;20028;-81
2023/11/02 01:49:23;;;;;;;1.42;0.68;;;11.30;99.90;;;;;;6206763;23;20458;-82
2023/11/02 01:52:09;;;;;;;1.83;0.60;;;11.30;99.90;;;;;;6208887;23;20090;-80
2023/11/02 01:54:58;;;;;;;2.08;0.60;;;11.30;1.00;;;;;;6208177;23;20474;-83
2023/11/02 01:57:57;;;;;;;3.17;0.70;;;11.30;1.00;;;;;;6207062;23;20040;-82
2023/11/02 02:00:31;;;;;;;3.05;0.60;;;11.30;1.00;;;;;;6201594;23;20078;-82
2023/11/02 02:03:08;;;;;;;8.02;1.30;;;11.30;99.90;;;;;;6157787;23;20470;-79
2023/11/02 02:05:36;;;;;;;2.25;0.63;;;11.40;99.90;;;;;;6230170;23;20431;-80
2023/11/02 02:08:48;;;;;;;2.50;0.80;;;11.40;99.90;;;;;;6236368;23;20020;-81
2023/11/02 02:11:24;;;;;;;2.53;0.80;;;11.40;99.90;;;;;;6214793;22;20016;-82
2023/11/02 02:14:09;;;;;;;1.80;0.70;;;11.40;99.90;;;;;;6237688;23;20468;-81
2023/11/02 02:16:51;;;;;;;1.30;0.50;;;11.40;99.90;;;;;;6214004;23;20020;-82
2023/11/02 02:19:44;;;;;;;0.93;0.50;;;11.40;99.90;;;;;;6237273;23;20146;-80
2023/11/02 02:22:19;;;;;;;2.63;1.00;;;11.40;1.00;;;;;;6237331;23;20411;-81
2023/11/02 02:24:57;;;;;;;3.33;0.80;;;11.40;1.00;;;;;;6238720;23;20020;-81
2023/11/02 02:27:47;;;;;;;1.88;0.73;;;11.40;1.00;;;;;;6212212;23;20426;-81
2023/11/02 02:33:41;;;;;;;3.60;0.65;;;11.40;1.00;;;;;;6111654;23;20351;-90
2023/11/02 02:36:29;;;;;;;2.60;0.80;;;11.40;1.00;;;;;;6107001;23;20020;-92
2023/11/02 02:39:08;;;;;;;1.67;0.70;;;11.50;1.00;;;;;;6108682;23;20022;-92
2023/11/02 02:41:46;;;;;;;1.67;0.60;;;11.50;1.00;;;;;;6085321;23;20089;-92
2023/11/02 02:44:14;;;;;;;2.58;0.85;;;11.50;1.00;;;;;;6085398;23;20050;-92
2023/11/02 03:35:51;;;;;;;1.30;0.20;;;10.10;99.90;;;;;;6244408;22;20093;-90
2023/11/02 03:38:51;;;;;;;0.50;0.20;;;10.30;99.90;;;;;;6231440;22;20020;-90
2023/11/02 03:41:57;;;;;;;0.35;0.30;;;10.30;99.90;;;;;;6244880;22;20016;-90
2023/11/02 03:45:25;;;;;;;0.65;0.40;;;10.30;99.90;;;;;;6188977;23;20163;-90
2023/11/02 03:48:55;;;;;;;;;;;;;;;;;;;;;
2023/11/02 03:55:48;;;;;;;1.92;0.60;;;10.00;99.90;;;;;;6160269;23;20032;-91
2023/11/02 05:50:57;;;;;;;1.45;0.68;;;10.60;99.90;;;;;;6227254;22;20043;-93
2023/11/02 05:53:27;;;;;;;1.48;0.75;;;10.60;99.90;;;;;;6176898;23;20020;-94
2023/11/02 05:55:55;;;;;;;1.38;0.77;;;10.60;99.90;;;;;;6200135;23;20020;-92
2023/11/02 05:58:23;;;;;;;1.98;0.60;;;10.60;99.90;;;;;;6176155;23;20016;-92
2023/11/02 06:00:50;;;;;;;1.88;0.68;;;10.60;99.90;;;;;;6176350;23;20030;-94
2023/11/02 06:03:17;;;;;;;1.42;0.57;;;10.60;99.90;;;;;;6176573;23;20095;-93
2023/11/02 06:05:45;;;;;;;1.02;0.50;;;10.60;99.90;;;;;;6175132;23;20404;-91
2023/11/02 06:08:13;;;;;;;0.80;0.38;;;10.60;99.90;;;;;;6177223;23;20016;-89
2023/11/02 06:10:42;;;;;;;0.60;0.47;;;10.60;99.90;;;;;;6203481;23;20020;-93
2023/11/02 06:13:12;;;;;;;3.95;0.70;;;10.60;99.90;;;;;;6174905;23;20031;-93
2023/11/02 06:15:39;;;;;;;0.98;0.45;;;10.60;99.90;;;;;;6176006;23;20036;-87
2023/11/02 06:18:06;;;;;;;2.83;1.25;;;10.60;99.90;;;;;;6175382;23;20012;-89
2023/11/02 06:20:34;;;;;;;1.77;0.80;;;10.60;99.90;;;;;;6177520;23;20448;-89
2023/11/02 06:23:03;;;;;;;1.27;0.50;;;10.70;99.90;;;;;;6174002;23;20051;-89
2023/11/02 06:25:31;;;;;;;1.33;0.70;;;10.70;99.90;;;;;;6174870;23;20071;-92
2023/11/02 06:27:58;;;;;;;1.10;0.30;;;10.70;99.90;;;;;;6177423;23;20008;-93
2023/11/02 06:30:25;;;;;;;0.75;0.75;;;10.70;99.90;;;;;;6174633;23;20016;-85
2023/11/02 06:32:56;;;;;;;1.08;0.40;;;10.80;99.90;;;;;;6200123;23;20020;-91
2023/11/02 06:35:25;;;;;;;0.47;0.35;;;10.80;99.90;;;;;;6176143;23;20055;-89
2023/11/02 06:38:01;;;;;;;1.13;0.40;;;10.80;99.90;;;;;;6178541;23;20016;-91
2023/11/02 06:40:32;;;;;;;0.98;0.50;;;10.80;99.90;;;;;;6178904;23;20086;-93
2023/11/02 06:42:59;;;;;;;0.52;0.45;;;10.80;99.90;;;;;;6201911;23;20040;-94
2023/11/02 06:45:26;;;;;;;1.70;0.40;;;10.80;99.90;;;;;;6178799;23;20022;-93
2023/11/02 06:47:54;;;;;;;1.63;0.40;;;10.80;99.90;;;;;;6178825;23;20016;-92
2023/11/02 06:50:21;;;;;;;0.30;0.30;;;10.90;99.90;;;;;;6174923;23;20071;-94
2023/11/02 06:52:48;;;;;;;0.80;0.20;;;10.90;99.90;;;;;;6173263;23;20040;-93
2023/11/02 06:55:21;;;;;;;0.80;0.40;;;10.90;99.90;;;;;;6171003;23;20098;-92
2023/11/02 06:57:53;;;;;;;0.82;0.55;;;10.90;99.90;;;;;;6149817;23;20065;-91
2023/11/02 07:00:24;;;;;;;0.70;0.50;;;10.90;99.90;;;;;;6170369;23;20020;-93
2023/11/02 07:02:52;;;;;;;1.55;0.70;;;11.00;99.90;;;;;;6171405;23;20024;-92
2023/11/02 07:05:19;;;;;;;0.77;0.60;;;11.00;99.90;;;;;;6169434;23;20013;-92
2023/11/02 07:07:49;;;;;;;0.75;0.43;;;11.00;99.90;;;;;;6171811;23;20021;-91
2023/11/02 07:10:16;;;;;;;1.00;0.30;;;11.10;99.90;;;;;;6172233;23;20064;-90
2023/11/02 07:12:44;;;;;;;0.88;0.50;;;11.10;99.90;;;;;;6147691;23;20036;-93
2023/11/02 07:15:13;;;;;;;0.50;0.30;;;11.10;99.90;;;;;;6172898;23;20044;-90
2023/11/02 07:17:42;;;;;;;0.65;0.40;;;11.10;99.90;;;;;;6173273;23;20016;-91
2023/11/02 07:20:11;;;;;;;1.10;0.28;;;11.10;99.90;;;;;;6172102;23;20024;-91
2023/11/02 07:22:39;;;;;;;1.10;0.38;;;11.20;99.90;;;;;;6173239;23;20028;-93
2023/11/02 07:25:07;;;;;;;1.67;0.93;;;11.20;99.90;;;;;;6172659;23;20080;-92
2023/11/02 07:27:35;;;;;;;2.05;0.70;;;11.20;99.90;;;;;;6172442;23;20021;-93
2023/11/02 07:30:03;;;;;;;0.82;0.50;;;11.20;99.90;;;;;;6172261;23;20040;-93
2023/11/02 07:32:31;;;;;;;1.50;0.50;;;11.20;99.90;;;;;;6172553;23;20076;-90
2023/11/02 07:34:58;;;;;;;1.75;0.70;;;11.20;99.90;;;;;;6148137;23;20047;-93
2023/11/02 07:37:26;;;;;;;2.53;0.60;;;11.20;99.90;;;;;;6171179;23;20095;-91
2023/11/02 07:39:54;;;;;;;1.52;0.68;;;11.20;99.90;;;;;;6170815;23;20462;-91
2023/11/02 07:42:21;;;;;;;1.65;0.70;;;11.10;99.90;;;;;;6172490;23;20096;-92
2023/11/02 07:44:48;;;;;;;1.30;0.70;;;11.10;99.90;;;;;;6173704;23;20020;-92
2023/11/02 07:47:17;;;;;;;1.73;0.93;;;11.10;99.90;;;;;;6173731;23;20513;-91
2023/11/02 07:49:45;;;;;;;2.25;0.82;;;11.10;99.90;;;;;;6173864;23;20089;-92
2023/11/02 07:52:12;;;;;;;1.38;0.50;;;11.00;99.90;;;;;;6195240;23;20072;-93
2023/11/02 07:54:41;;;;;;;0.80;0.40;;;11.10;99.90;;;;;;6202552;23;20404;-93
2023/11/02 07:57:09;;;;;;;1.08;0.60;;;11.10;99.90;;;;;;6204856;23;20422;-92
2023/11/02 07:59:40;;;;;;;0.98;0.40;;;11.00;99.90;;;;;;6202468;23;20028;-92
2023/11/02 08:02:15;;;;;;;1.55;0.63;;;11.00;99.90;;;;;;6228117;23;20035;-93
2023/11/02 08:04:46;;;;;;;1.23;0.45;;;11.10;99.90;;;;;;6227276;23;20031;-93
2023/11/02 08:07:14;;;;;;;0.38;0.38;;;11.10;99.90;;;;;;6226736;23;20017;-94
2023/11/02 08:09:42;;;;;;;0.22;0.20;;;11.10;99.90;;;;;;6202349;23;20076;-92
2023/11/02 08:12:10;;;;;;;0.32;0.22;;;11.20;99.90;;;;;;6203470;23;20020;-92
2023/11/02 08:14:44;;;;;;;0.40;0.32;;;11.20;99.90;;;;;;6203088;23;20086;-93
2023/11/02 08:17:17;;;;;;;0.40;0.20;;;11.20;99.90;;;;;;6203445;23;20020;-91
2023/11/02 08:19:47;;;;;;;;;;;11.20;99.90;;;;;;6206183;23;20032;-92
2023/11/02 08:22:15;;;;;;;0.68;0.40;;;11.20;99.90;;;;;;6229480;23;19915;-92
2023/11/02 08:24:50;;;;;;;0.73;0.40;;;11.20;99.90;;;;;;6203980;23;20020;-91
2023/11/02 08:27:21;;;;;;;0.40;0.30;;;11.20;99.90;;;;;;6206300;23;20017;-94
2023/11/02 08:29:51;;;;;;;1.35;0.70;;;11.10;99.90;;;;;;6202594;23;20020;-93
2023/11/02 08:32:21;;;;;;;0.82;0.50;;;11.20;99.90;;;;;;6203653;23;20023;-91
2023/11/02 08:34:52;;;;;;;0.60;0.55;;;11.20;99.90;;;;;;6202234;23;20457;-90
2023/11/02 08:37:22;;;;;;;0.63;0.40;;;11.20;99.90;;;;;;6202088;23;20442;-92
2023/11/02 08:39:56;;;;;;;0.88;0.45;;;11.20;99.90;;;;;;6204321;23;20031;-90
2023/11/02 08:42:31;;;;;;;0.28;0.28;;;11.30;99.90;;;;;;6227822;23;20016;-89
2023/11/02 08:44:58;;;;;;;1.08;0.30;;;11.30;99.90;;;;;;6204261;23;20024;-89
2023/11/02 08:47:25;;;;;;;0.82;0.30;;;11.30;99.90;;;;;;6203086;23;20032;-92
2023/11/02 08:49:54;;;;;;;0.70;0.30;;;11.30;99.90;;;;;;6203384;23;20070;-90
2023/11/02 08:52:22;;;;;;;0.68;0.40;;;11.30;99.90;;;;;;6203468;23;20028;-92
2023/11/02 08:54:52;;;;;;;0.77;0.47;;;11.30;99.90;;;;;;6202664;23;20024;-92
2023/11/02 08:57:22;;;;;;;0.73;0.60;;;11.30;99.90;;;;;;6203628;23;20013;-91
2023/11/02 08:59:50;;;;;;;0.43;0.30;;;11.30;99.90;;;;;;6203534;23;20020;-90
2023/11/02 09:02:22;;;;;;;1.10;0.40;;;11.40;99.90;;;;;;6202764;23;20103;-93
2023/11/02 09:04:50;;;;;;;0.73;0.55;;;11.50;99.90;;;;;;6200829;23;20027;-92
2023/11/02 09:07:17;;;;;;;0.40;0.40;;;11.60;99.90;;;;;;6206019;23;20086;-91
2023/11/02 09:09:44;;;;;;;1.10;0.68;;;11.60;99.90;;;;;;6202247;23;20038;-95
2023/11/02 09:12:13;;;;;;;0.68;0.57;;;11.60;99.90;;;;;;6201598;23;20567;-93
2023/11/02 09:14:41;;;;;;;1.02;0.70;;;11.70;99.90;;;;;;6200955;23;20050;-93
2023/11/02 09:17:10;;;;;;;0.88;0.50;;;11.80;99.90;;;;;;6223825;23;20050;-92
2023/11/02 09:19:37;;;;;;;0.82;0.73;;;11.90;99.90;;;;;;6198802;23;20020;-93
2023/11/02 09:22:06;;;;;;;0.60;0.60;;;11.90;99.90;;;;;;6197585;23;20024;-92
2023/11/02 09:24:34;;;;;;;1.15;0.70;;;11.90;99.90;;;;;;6197736;23;20402;-92
2023/11/02 09:27:02;;;;;;;2.95;1.27;;;12.00;99.90;;;;;;6197366;23;20024;-93
2023/11/02 09:29:29;;;;;;;1.75;0.98;;;11.90;99.90;;;;;;6196934;23;20020;-92
2023/11/02 09:31:56;;;;;;;2.30;1.10;;;11.80;99.90;;;;;;6196115;23;20488;-89
2023/11/02 09:34:30;;;;;;;2.42;1.00;;;11.80;99.90;;;;;;6198483;23;20049;-90
2023/11/02 09:36:59;;;;;;;4.30;1.42;;;11.80;99.90;;;;;;6195283;23;20078;-91
2023/11/02 09:39:29;;;;;;;2.10;1.45;;;11.70;99.90;;;;;;6193944;23;20037;-91
2023/11/02 09:41:57;;;;;;;3.08;1.58;;;11.60;99.90;;;;;;6194870;23;20024;-90
2023/11/02 09:44:24;;;;;;;2.88;1.40;;;11.60;99.90;;;;;;6195151;23;20016;-92
2023/11/02 09:46:53;;;;;;;2.70;1.63;;;11.60;99.90;;;;;;6221336;23;20325;-89
2023/11/02 09:49:21;;;;;;;1.58;1.27;;;11.50;99.90;;;;;;6195207;23;20036;-92
2023/11/02 09:51:48;;;;;;;1.60;1.30;;;11.50;99.90;;;;;;6196655;23;20034;-90
2023/11/02 09:54:16;;;;;;;2.08;1.20;;;11.50;99.90;;;;;;6190703;23;20341;-90
2023/11/02 09:56:44;;;;;;;1.63;1.10;;;11.50;99.90;;;;;;6190255;23;20047;-86
2023/11/02 09:59:11;;;;;;;2.88;1.65;;;11.50;99.90;;;;;;6195058;23;20023;-90
2023/11/02 10:01:38;;;;;;;1.95;1.00;;;11.40;93.40;;;;;;6195998;23;20103;-90
2023/11/02 10:04:06;;;;;;;1.70;1.13;;;11.40;99.90;;;;;;6197330;23;20019;-87
2023/11/02 10:06:35;;;;;;;2.45;1.10;;;11.30;91.20;;;;;;6196366;23;20028;-89
2023/11/02 10:09:04;;;;;;;3.47;1.00;;;11.30;97.50;;;;;;6196078;23;20121;-88
2023/11/02 10:11:31;;;;;;;1.75;0.82;;;11.30;40.00;;;;;;6195121;23;20319;-90
2023/11/02 10:13:58;;;;;;;1.15;0.68;;;11.30;36.50;;;;;;6197496;23;20013;-91
2023/11/02 10:16:25;;;;;;;2.22;0.70;;;11.30;1.00;;;;;;6199264;23;20027;-91
2023/11/02 10:18:52;;;;;;;1.15;0.88;;;11.30;1.00;;;;;;6198676;23;20098;-86
2023/11/02 10:21:20;;;;;;;0.80;0.50;;;11.30;1.00;;;;;;6198815;23;20020;-86
2023/11/02 10:23:55;;;;;;;1.25;0.70;;;11.30;1.00;;;;;;6222662;23;20103;-91
2023/11/02 10:26:26;;;;;;;1.42;0.70;;;11.30;1.00;;;;;;6198252;23;20075;-88
2023/11/02 10:28:55;;;;;;;1.23;0.68;;;11.30;1.00;;;;;;6198480;23;20567;-91
2023/11/02 10:31:25;;;;;;;0.90;0.60;;;11.30;1.00;;;;;;6200506;23;20016;-90
2023/11/02 10:33:52;;;;;;;0.55;0.40;;;11.30;20.90;;;;;;6199913;23;20268;-90
2023/11/02 10:36:21;;;;;;;1.27;0.80;;;11.30;37.50;;;;;;6200053;23;20050;-89
2023/11/02 10:38:49;;;;;;;1.13;0.40;;;11.30;1.00;;;;;;6199357;23;20012;-92
2023/11/02 10:41:17;;;;;;;1.33;0.60;;;11.30;1.00;;;;;;6199603;23;20023;-89
2023/11/02 10:43:46;;;;;;;0.40;0.40;;;11.20;1.00;;;;;;6200122;23;20399;-90
2023/11/02 10:46:15;;;;;;;2.13;1.00;;;11.20;1.00;;;;;;6199630;23;20067;-92
2023/11/02 10:48:43;;;;;;;2.60;1.20;;;11.20;1.00;;;;;;6200123;23;20024;-89
2023/11/02 10:51:16;;;;;;;1.58;0.93;;;11.20;99.90;;;;;;6199661;23;20024;-91
2023/11/02 10:53:47;;;;;;;3.47;0.80;;;11.10;99.90;;;;;;6200933;23;20024;-90
2023/11/02 10:56:22;;;;;;;1.08;0.60;;;11.10;99.90;;;;;;6251054;23;20046;-89
2023/11/02 10:58:49;;;;;;;1.63;0.60;;;11.10;99.90;;;;;;6200441;23;20016;-91
2023/11/02 11:01:20;;;;;;;2.95;1.08;;;11.20;99.90;;;;;;6200662;23;20073;-89
2023/11/02 11:03:50;;;;;;;1.45;0.80;;;11.10;57.50;;;;;;6201623;23;20012;-91
2023/11/02 11:06:18;;;;;;;1.50;0.70;;;11.10;99.90;;;;;;6201920;23;20030;-91
2023/11/02 11:08:45;;;;;;;1.85;0.60;;;11.10;99.90;;;;;;6199866;23;20016;-89
2023/11/02 11:11:14;;;;;;;2.78;1.10;;;11.00;99.90;;;;;;6199257;23;20103;-91
2023/11/02 11:13:45;;;;;;;3.08;1.30;;;11.00;1.00;;;;;;6224926;23;20091;-90
2023/11/02 11:16:13;;;;;;;2.65;1.02;;;11.00;1.00;;;;;;6201112;23;20504;-87
2023/11/02 11:18:41;;;;;;;3.13;1.25;;;10.90;1.00;;;;;;6198274;23;20450;-87
2023/11/02 11:21:08;;;;;;;1.42;0.75;;;10.90;61.00;;;;;;6200799;23;20024;-89
2023/11/02 11:23:44;;;;;;;1.20;0.80;;;10.80;1.00;;;;;;6199563;23;20111;-89
2023/11/02 11:26:14;;;;;;;1.73;0.80;;;10.80;99.90;;;;;;6202608;23;20256;-89
2023/11/02 11:28:41;;;;;;;1.30;0.63;;;10.80;99.90;;;;;;6199540;23;20024;-90
2023/11/02 11:31:47;;;;;;;1.48;0.68;;;10.90;99.90;;;;;;6200581;23;20024;-91
2023/11/02 11:34:15;;;;;;;1.60;0.80;;;10.90;99.90;;;;;;6249754;22;20023;-91
2023/11/02 11:36:45;;;;;;;0.52;0.40;;;10.90;99.90;;;;;;6197947;23;20086;-90
2023/11/02 11:39:36;;;;;;;1.00;0.80;;;10.90;99.90;;;;;;6197506;23;20066;-92
2023/11/02 11:42:04;;;;;;;0.77;0.57;;;10.80;99.90;;;;;;6220245;23;20465;-91
2023/11/02 11:44:31;;;;;;;3.40;0.63;;;10.70;71.50;;;;;;6196188;23;20034;-92
2023/11/02 11:47:00;;;;;;;1.23;0.70;;;10.70;1.00;;;;;;6197171;23;20032;-89
2023/11/02 11:49:39;;;;;;;1.23;0.50;;;10.60;99.40;;;;;;6196681;23;20028;-92
2023/11/02 11:52:19;;;;;;;0.80;0.50;;;10.60;1.00;;;;;;6245348;23;20046;-92
2023/11/02 11:54:48;;;;;;;1.85;0.50;;;10.60;99.90;;;;;;6196250;23;20349;-90
2023/11/02 11:57:51;;;;;;;1.33;1.00;;;10.60;1.00;;;;;;6197733;23;20027;-93
2023/11/02 12:00:32;;;;;;;1.15;0.52;;;10.60;99.90;;;;;;6243217;22;20028;-91
2023/11/02 12:03:05;;;;;;;1.45;0.63;;;10.60;1.00;;;;;;6196118;23;20081;-92
2023/11/02 12:05:42;;;;;;;1.45;0.73;;;10.60;99.90;;;;;;6220653;23;20044;-90
2023/11/02 12:08:10;;;;;;;0.63;0.63;;;10.60;16.50;;;;;;6245784;23;20036;-91
2023/11/02 12:10:49;;;;;;;1.70;0.60;;;10.60;1.00;;;;;;6195577;23;20453;-90
2023/11/02 12:13:16;;;;;;;1.88;1.05;;;10.70;17.60;;;;;;6196075;23;20070;-92
2023/11/02 12:16:03;;;;;;;1.35;0.90;;;10.60;4.60;;;;;;6196815;23;20023;-91
2023/11/02 12:18:31;;;;;;;1.77;0.68;;;10.60;99.90;;;;;;6220791;23;20020;-90
2023/11/02 12:21:04;;;;;;;1.08;0.60;;;10.60;1.00;;;;;;6198088;23;20024;-91
2023/11/02 12:23:38;;;;;;;1.13;0.60;;;10.60;99.90;;;;;;6223806;23;20016;-93
2023/11/02 12:26:08;;;;;;;1.38;0.65;;;10.60;99.90;;;;;;6222718;23;20024;-90
2023/11/02 12:29:06;;;;;;;0.63;0.50;;;10.70;1.00;;;;;;6197475;23;20016;-92
2023/11/02 12:31:39;;;;;;;0.88;0.50;;;10.70;99.90;;;;;;6217977;23;20016;-87
2023/11/02 12:34:08;;;;;;;1.23;0.40;;;10.70;3.80;;;;;;6196613;23;20544;-87
2023/11/02 12:36:36;;;;;;;0.75;0.45;;;10.80;1.00;;;;;;6193723;23;20032;-89
2023/11/02 12:39:13;;;;;;;0.80;0.57;;;10.80;8.00;;;;;;6194145;23;20020;-92
2023/11/02 12:41:42;;;;;;;1.77;0.55;;;10.90;99.90;;;;;;6193769;23;20020;-86
2023/11/02 12:44:10;;;;;;;2.80;0.50;;;10.90;99.90;;;;;;6193492;23;20027;-89
2023/11/02 12:46:40;;;;;;;0.75;0.52;;;10.90;2.80;;;;;;6195473;23;20454;-86
2023/11/02 12:49:19;;;;;;;2.17;0.60;;;10.80;1.00;;;;;;6194486;23;20050;-89
2023/11/02 12:51:50;;;;;;;0.88;0.68;;;10.90;1.00;;;;;;6194722;23;20028;-89
2023/11/02 12:54:17;;;;;;;1.58;0.60;;;10.90;1.00;;;;;;6241253;22;20023;-91
2023/11/02 12:56:46;;;;;;;0.98;0.50;;;10.90;99.90;;;;;;6188928;23;20020;-90
2023/11/02 12:59:13;;;;;;;0.57;0.50;;;10.90;1.00;;;;;;6217735;23;20094;-90
2023/11/02 13:01:51;;;;;;;1.05;0.50;;;10.90;1.00;;;;;;6192751;23;20043;-89
2023/11/02 13:04:21;;;;;;;0.95;0.80;;;11.00;6.30;;;;;;6193908;23;20028;-91
2023/11/02 13:06:58;;;;;;;1.05;0.82;;;11.00;99.90;;;;;;6196226;23;20330;-92
2023/11/02 13:09:32;;;;;;;1.23;0.60;;;11.00;1.00;;;;;;6197680;23;20024;-91
2023/11/02 13:12:03;;;;;;;0.88;0.60;;;11.00;1.00;;;;;;6195946;23;20084;-89
2023/11/02 13:14:38;;;;;;;1.02;0.68;;;11.00;1.00;;;;;;6199544;23;20024;-91
2023/11/02 13:17:06;;;;;;;1.02;0.63;;;11.00;99.90;;;;;;6194255;23;20020;-89
2023/11/02 13:19:36;;;;;;;0.82;0.43;;;11.10;1.00;;;;;;6194057;23;20020;-92
2023/11/02 13:22:09;;;;;;;0.90;0.60;;;11.00;99.90;;;;;;6197308;23;20016;-92
2023/11/02 13:24:47;;;;;;;1.48;0.70;;;10.90;99.90;;;;;;6198816;23;20023;-90
2023/11/02 13:27:17;;;;;;;0.57;0.50;;;10.80;1.00;;;;;;6195215;23;20016;-90
2023/11/02 13:29:46;;;;;;;0.60;0.50;;;10.80;16.20;;;;;;6220137;23;20074;-90
2023/11/02 13:32:14;;;;;;;0.60;0.50;;;10.90;99.90;;;;;;6194872;23;20023;-92
2023/11/02 13:34:44;;;;;;;0.30;0.30;;;10.90;1.00;;;;;;6192461;23;20020;-89
2023/11/02 13:37:12;;;;;;;0.40;0.40;;;11.00;1.00;;;;;;6190692;23;20027;-89
2023/11/02 13:39:39;;;;;;;0.30;0.30;;;11.00;1.00;;;;;;6215250;23;20051;-89
2023/11/02 13:42:08;;;;;;;0.52;0.40;;;11.00;99.90;;;;;;6193034;23;20580;-90
2023/11/02 13:44:36;;;;;;;0.38;0.30;;;11.00;99.90;;;;;;6217121;23;20047;-91
2023/11/02 13:47:03;;;;;;;0.60;0.40;;;11.10;99.90;;;;;;6193437;23;20016;-90
2023/11/02 13:49:32;;;;;;;1.02;0.70;;;11.20;2.80;;;;;;6192639;23;20024;-90
2023/11/02 13:51:59;;;;;;;0.52;0.40;;;11.30;99.90;;;;;;6193442;23;20130;-89
2023/11/02 13:54:29;;;;;;;0.45;0.40;;;11.30;99.90;;;;;;6194033;23;20016;-90
2023/11/02 13:56:57;;;;;;;0.30;0.30;;;11.30;99.90;;;;;;6195251;23;20614;-90
2023/11/02 13:59:26;;;;;;;0.68;0.40;;;11.20;99.90;;;;;;6195351;23;20027;-87
2023/11/02 14:01:54;;;;;;;0.65;0.40;;;11.20;99.90;;;;;;6195126;23;20096;-89
2023/11/02 14:04:21;;;;;;;0.30;0.30;;;11.10;99.90;;;;;;6217750;23;20024;-89
2023/11/02 14:06:56;;;;;;;0.40;0.30;;;11.00;99.90;;;;;;6192880;23;20016;-90
2023/11/02 14:09:25;;;;;;;0.20;0.20;;;10.90;99.90;;;;;;6194392;23;20043;-89
2023/11/02 14:11:52;;;;;;;0.30;0.30;;;10.80;99.90;;;;;;6193831;23;20024;-92
2023/11/02 14:14:22;;;;;;;0.30;0.30;;;10.70;99.90;;;;;;6197388;23;20043;-93
2023/11/02 14:16:56;;;;;;;0.35;0.20;;;10.60;83.90;;;;;;6198307;23;20030;-91
2023/11/02 14:19:23;;;;;;;0.55;0.35;;;10.40;11.20;;;;;;6198359;23;20038;-91
2023/11/02 14:21:50;;;;;;;0.20;0.20;;;10.30;29.00;;;;;;6198034;23;20458;-90
2023/11/02 14:24:18;;;;;;;0.20;0.20;;;10.20;99.90;;;;;;6196341;23;20412;-92
2023/11/02 14:26:45;;;;;;;0.30;0.30;;;10.10;31.90;;;;;;6197528;23;20160;-92
2023/11/02 14:29:20;;;;;;;0.20;0.20;;;10.10;19.60;;;;;;6199587;23;20537;-92
2023/11/02 14:31:48;;;;;;;0.60;0.40;;;10.00;99.90;;;;;;6200791;23;20030;-92
2023/11/02 14:34:17;;;;;;;0.22;0.22;;;10.00;99.90;;;;;;6249002;22;20031;-90
2023/11/02 14:36:45;;;;;;;0.93;0.22;;;10.00;99.90;;;;;;6199112;23;20461;-90
2023/11/02 14:39:14;;;;;;;0.20;0.20;;;9.90;99.90;;;;;;6198686;23;20114;-93
2023/11/02 14:41:42;;;;;;;0.30;0.22;;;9.90;99.90;;;;;;6200525;23;20035;-93
2023/11/02 14:44:13;;;;;;;0.47;0.30;;;9.80;99.90;;;;;;6200206;23;20020;-92
2023/11/02 14:46:41;;;;;;;0.95;0.40;;;9.80;99.90;;;;;;6199614;23;20026;-90
2023/11/02 14:49:09;;;;;;;0.20;0.20;;;9.70;99.90;;;;;;6199438;23;20046;-91
2023/11/02 14:51:36;;;;;;;0.28;0.28;;;9.70;99.90;;;;;;6225523;23;20195;-91
2023/11/02 14:54:04;;;;;;;0.25;0.25;;;9.70;99.90;;;;;;6200796;23;20020;-89
2023/11/02 14:56:31;;;;;;;0.30;0.30;;;9.70;99.90;;;;;;6202388;23;20012;-90
2023/11/02 14:58:59;;;;;;;0.38;0.20;;;9.70;99.90;;;;;;6203262;23;20030;-89
2023/11/02 15:01:27;;;;;;;0.82;0.40;;;9.60;99.90;;;;;;6204300;23;20026;-92
2023/11/02 15:03:54;;;;;;;0.43;0.30;;;9.70;99.90;;;;;;6203280;23;20022;-91
2023/11/02 15:06:21;;;;;;;0.73;0.35;;;9.60;99.90;;;;;;6203099;23;20044;-89
2023/11/02 15:08:50;;;;;;;1.05;0.73;;;9.60;99.90;;;;;;6201771;23;20043;-91
2023/11/02 15:11:33;;;;;;;0.68;0.30;;;9.60;99.90;;;;;;6228405;23;20016;-92
2023/11/02 15:14:01;;;;;;;1.45;0.40;;;9.50;99.90;;;;;;6202811;23;20016;-90
2023/11/02 15:16:28;;;;;;;1.55;0.55;;;9.50;99.90;;;;;;6203703;23;20020;-90
2023/11/02 15:18:57;;;;;;;0.35;0.25;;;9.50;99.90;;;;;;6228575;23;20052;-91
2023/11/02 15:21:25;;;;;;;0.95;0.52;;;9.50;99.90;;;;;;6204226;23;20027;-92
2023/11/02 15:23:57;;;;;;;0.57;0.30;;;9.50;99.90;;;;;;6228326;23;20016;-90
2023/11/02 15:26:25;;;;;;;0.60;0.40;;;9.40;99.90;;;;;;6202629;23;20074;-90
2023/11/02 15:28:56;;;;;;;1.58;0.85;;;9.40;99.90;;;;;;6201605;23;20012;-91
2023/11/02 15:31:24;;;;;;;0.60;0.40;;;9.40;99.90;;;;;;6204133;23;20016;-91
2023/11/02 15:33:52;;;;;;;0.30;0.30;;;9.30;99.90;;;;;;6201898;23;20023;-92
2023/11/02 15:36:20;;;;;;;1.20;0.47;;;9.40;99.90;;;;;;6201724;23;20050;-90
2023/11/02 15:38:51;;;;;;;0.25;0.22;;;9.30;99.90;;;;;;6201436;23;20023;-91
2023/11/02 15:41:28;;;;;;;0.75;0.40;;;9.30;1.00;;;;;;6201513;23;20289;-92
2023/11/02 15:43:55;;;;;;;0.77;0.30;;;9.40;1.00;;;;;;6227822;23;20016;-92
2023/11/02 15:46:22;;;;;;;0.25;0.25;;;9.30;1.00;;;;;;6201466;23;20023;-93
2023/11/02 15:48:50;;;;;;;0.52;0.30;;;9.30;1.00;;;;;;6202568;23;20027;-92
2023/11/02 15:51:20;;;;;;;0.28;0.28;;;9.30;1.00;;;;;;6202132;23;20058;-89
2023/11/02 15:53:51;;;;;;;0.52;0.38;;;9.30;1.00;;;;;;6202716;23;20107;-90
2023/11/02 15:56:19;;;;;;;0.63;0.43;;;9.30;1.00;;;;;;6202332;23;20502;-91
2023/11/02 15:58:47;;;;;;;0.85;0.40;;;9.20;1.00;;;;;;6204261;23;20020;-90
2023/11/02 16:01:25;;;;;;;0.75;0.45;;;9.20;1.00;;;;;;6227934;23;20043;-91